Wilson Heron — 9HJW9 — position and weather

sailwx.info

Track history (hours):
 
Tides and Currents Weather Stations Pressure Air Temp Water Temp Dewpoint Dewpoint Depression Visibility Wind Speed Wind Dir Waves Ship Positions

Wilson Heron

Last reported at 2016-May-04 04:33 UTC. Time now 2016-May-06 18:48 UTC.
Position N 35°55' W 005°16'.

Length 91 m; draft 6.1 m.

Type: Cargo ship. MMSI: 249075000.

Date/timePositionNaut miles runAvg speedWind from/ knotsBaromVisibWave heightAir tempDewpointWater temp
2016-May-04 04:33N 35°55' W 005°16'3 3.3
2016-May-04 03:33N 35°54' W 005°19'0 0.0
2016-May-04 02:33N 35°54' W 005°19'0 0.0
2016-May-04 01:33N 35°54' W 005°19'0 0.0
2016-May-04 00:33N 35°54' W 005°19'0 0.0
2016-May-03 23:33N 35°54' W 005°19'1 0.6
2016-May-03 22:33N 35°54' W 005°19'2 2.4
2016-May-03 21:33N 35°56' W 005°18'0 0.2
2016-May-03 20:33N 35°56' W 005°19'9 8.4
2016-May-03 19:33N 35°57' W 005°29'218 6.6
2016-May-02 10:29N 37°18' W 009°42'15 7.5
2016-May-02 08:33N 37°32' W 009°46'7 7.4
2016-May-02 07:32N 37°39' W 009°48'8 8.4
2016-May-02 06:33N 37°48' W 009°51'9 9.0
2016-May-02 05:33N 37°56' W 009°53'7 7.1
2016-May-02 04:33N 38°03' W 009°55'7 6.8
2016-May-02 03:33N 38°10' W 009°57'7 6.7
2016-May-02 02:33N 38°16' W 009°59'7 7.0
2016-May-02 01:33N 38°23' W 010°01'7 7.4
2016-May-02 00:33N 38°30' W 010°03'8 7.5
2016-May-01 23:32N 38°38' W 010°06'8 7.4
2016-May-01 22:30N 38°46' W 010°06'  
2016-Apr-28 05:32N 51°59' W 005°53'1110.9
2016-Apr-28 04:33N 52°10' W 005°50'1110.7
2016-Apr-28 03:33N 52°20' W 005°48'1010.1
2016-Apr-28 02:33N 52°30' W 005°45'90 8.7
2016-Apr-27 16:12N 53°59' W 005°19'6 9.4
2016-Apr-27 15:33N 54°05' W 005°17'10 9.5
2016-Apr-27 14:33N 54°15' W 005°17'1010.0
2016-Apr-27 13:33N 54°25' W 005°15'1110.8
2016-Apr-27 12:33N 54°36' W 005°17'1111.4
2016-Apr-27 11:33N 54°46' W 005°25'1211.5
2016-Apr-27 10:33N 54°56' W 005°35'2311.5
2016-Apr-27 08:33N 55°15' W 005°58'1010.0
2016-Apr-27 07:33N 55°22' W 006°11'9 9.3
2016-Apr-27 06:33N 55°28' W 006°23'8 8.3
2016-Apr-27 05:33N 55°34' W 006°33'6 6.2
2016-Apr-27 04:33N 55°39' W 006°39'6 6.1
2016-Apr-27 03:33N 55°44' W 006°45'211 8.7
2016-Apr-26 03:22N 59°00' W 004°19'7 8.9
2016-Apr-26 02:33N 59°05' W 004°08'8 8.5
2016-Apr-26 01:33N 59°10' W 003°55'8 7.7
2016-Apr-26 00:33N 59°14' W 003°43'  
Track history (hours):
 
Tides and Currents Weather Stations Pressure Air Temp Water Temp Dewpoint Dewpoint Depression Visibility Wind Speed Wind Dir Waves Ship Positions

Wilson Heron

Last reported at 2016-May-04 04:33 UTC. Time now 2016-May-06 18:48 UTC.
Position N 35°55' W 005°16'.

Length 91 m; draft 6.1 m.

Type: Cargo ship. MMSI: 249075000.

Date/timePositionNaut miles runAvg speedWind from/ knotsBaromVisibWave heightAir tempDewpointWater temp
2016-May-04 04:33N 35°55' W 005°16'3 3.3
2016-May-04 03:33N 35°54' W 005°19'0 0.0
2016-May-04 02:33N 35°54' W 005°19'0 0.0
2016-May-04 01:33N 35°54' W 005°19'0 0.0
2016-May-04 00:33N 35°54' W 005°19'0 0.0
2016-May-03 23:33N 35°54' W 005°19'1 0.6
2016-May-03 22:33N 35°54' W 005°19'2 2.4
2016-May-03 21:33N 35°56' W 005°18'0 0.2
2016-May-03 20:33N 35°56' W 005°19'9 8.4
2016-May-03 19:33N 35°57' W 005°29'218 6.6
2016-May-02 10:29N 37°18' W 009°42'15 7.5
2016-May-02 08:33N 37°32' W 009°46'7 7.4
2016-May-02 07:32N 37°39' W 009°48'8 8.4
2016-May-02 06:33N 37°48' W 009°51'9 9.0
2016-May-02 05:33N 37°56' W 009°53'7 7.1
2016-May-02 04:33N 38°03' W 009°55'7 6.8
2016-May-02 03:33N 38°10' W 009°57'7 6.7
2016-May-02 02:33N 38°16' W 009°59'7 7.0
2016-May-02 01:33N 38°23' W 010°01'7 7.4
2016-May-02 00:33N 38°30' W 010°03'8 7.5
2016-May-01 23:32N 38°38' W 010°06'8 7.4
2016-May-01 22:30N 38°46' W 010°06'  
2016-Apr-28 05:32N 51°59' W 005°53'1110.9
2016-Apr-28 04:33N 52°10' W 005°50'1110.7
2016-Apr-28 03:33N 52°20' W 005°48'1010.1
2016-Apr-28 02:33N 52°30' W 005°45'90 8.7
2016-Apr-27 16:12N 53°59' W 005°19'6 9.4
2016-Apr-27 15:33N 54°05' W 005°17'10 9.5
2016-Apr-27 14:33N 54°15' W 005°17'1010.0
2016-Apr-27 13:33N 54°25' W 005°15'1110.8
2016-Apr-27 12:33N 54°36' W 005°17'1111.4
2016-Apr-27 11:33N 54°46' W 005°25'1211.5
2016-Apr-27 10:33N 54°56' W 005°35'2311.5
2016-Apr-27 08:33N 55°15' W 005°58'1010.0
2016-Apr-27 07:33N 55°22' W 006°11'9 9.3
2016-Apr-27 06:33N 55°28' W 006°23'8 8.3
2016-Apr-27 05:33N 55°34' W 006°33'6 6.2
2016-Apr-27 04:33N 55°39' W 006°39'6 6.1
2016-Apr-27 03:33N 55°44' W 006°45'211 8.7
2016-Apr-26 03:22N 59°00' W 004°19'7 8.9
2016-Apr-26 02:33N 59°05' W 004°08'8 8.5
2016-Apr-26 01:33N 59°10' W 003°55'8 7.7
2016-Apr-26 00:33N 59°14' W 003°43'  

Dump ship's entire track history